Time;durP1;ratioP1;P1;durP2;ratioP2;P2;SDS_P1;SDS_P2;PMS_P1;PMS_P2;Temp;Humidity;BMP_temperature;BMP_pressure;BME280_temperature;BME280_humidity;BME280_pressure;Samples;Min_cycle;Max_cycle;Signal;HPM_P1;HPM_P2
2023/11/01 00:01:22;;;;;;;1.40;1.20;;;;;;;;;;5040385;28;20772;-80
2023/11/01 00:03:51;;;;;;;2.45;1.40;;;;;;;;;;5031520;28;20387;-80
2023/11/01 00:06:17;;;;;;;2.85;2.17;;;;;;;;;;5043001;28;20440;-80
2023/11/01 00:08:43;;;;;;;2.10;1.70;;;;;;;;;;5043115;28;20391;-80
2023/11/01 00:11:09;;;;;;;2.55;1.35;;;;;;;;;;5040325;28;20418;-80
2023/11/01 00:13:35;;;;;;;1.50;1.10;;;;;;;;;;5042452;28;21022;-80
2023/11/01 00:16:01;;;;;;;3.23;1.40;;;;;;;;;;5042760;28;20403;-80
2023/11/01 00:18:27;;;;;;;3.63;1.50;;;;;;;;;;5040832;28;20426;-80
2023/11/01 00:20:53;;;;;;;2.42;1.58;;;;;;;;;;5042851;28;20380;-80
2023/11/01 00:23:19;;;;;;;2.63;1.38;;;;;;;;;;5042533;28;20391;-80
2023/11/01 00:25:45;;;;;;;1.33;1.10;;;;;;;;;;5042275;28;20379;-80
2023/11/01 00:28:11;;;;;;;2.27;1.13;;;;;;;;;;5040114;28;20469;-80
2023/11/01 00:30:37;;;;;;;1.42;1.10;;;;;;;;;;5042590;28;20383;-80
2023/11/01 00:33:03;;;;;;;1.80;1.00;;;;;;;;;;5039839;28;20446;-80
2023/11/01 00:35:29;;;;;;;1.90;1.00;;;;;;;;;;5042733;28;20906;-80
2023/11/01 00:37:55;;;;;;;1.90;1.30;;;;;;;;;;5042816;28;20465;-80
2023/11/01 00:40:21;;;;;;;2.17;1.20;;;;;;;;;;5042882;28;20387;-80
2023/11/01 00:42:47;;;;;;;2.70;1.30;;;;;;;;;;5042805;28;20422;-80
2023/11/01 00:45:16;;;;;;;1.15;1.00;;;;;;;;;;5032197;28;20395;-80
2023/11/01 00:47:42;;;;;;;1.05;0.95;;;;;;;;;;5042829;28;20558;-80
2023/11/01 00:50:08;;;;;;;1.60;0.90;;;;;;;;;;5042643;28;20379;-80
2023/11/01 00:52:34;;;;;;;1.23;0.90;;;;;;;;;;5042544;28;20427;-80
2023/11/01 00:55:00;;;;;;;2.47;0.90;;;;;;;;;;5042486;28;20426;-79
2023/11/01 00:57:26;;;;;;;1.70;0.93;;;;;;;;;;5041981;28;20379;-80
2023/11/01 00:59:52;;;;;;;1.15;0.90;;;;;;;;;;5042926;28;20433;-80
2023/11/01 01:02:18;;;;;;;2.45;0.68;;;;;;;;;;5025296;28;20389;-80
2023/11/01 01:04:46;;;;;;;1.40;0.87;;;;;;;;;;5032110;28;20506;-80
2023/11/01 01:07:12;;;;;;;1.30;0.90;;;;;;;;;;5028678;28;20427;-80
2023/11/01 01:09:38;;;;;;;0.90;0.77;;;;;;;;;;5042894;28;20462;-80
2023/11/01 01:12:05;;;;;;;1.52;0.75;;;;;;;;;;5042167;28;20853;-80
2023/11/01 01:14:31;;;;;;;1.42;0.70;;;;;;;;;;5028415;28;20391;-80
2023/11/01 01:16:57;;;;;;;1.67;1.05;;;;;;;;;;5042063;28;20394;-80
2023/11/01 01:19:23;;;;;;;1.42;0.75;;;;;;;;;;5042696;28;20399;-80
2023/11/01 01:21:49;;;;;;;1.35;1.00;;;;;;;;;;5034937;28;20386;-80
2023/11/01 01:24:15;;;;;;;0.95;0.85;;;;;;;;;;5038392;28;20792;-80
2023/11/01 01:26:41;;;;;;;1.13;0.90;;;;;;;;;;5044001;28;20453;-80
2023/11/01 01:29:07;;;;;;;0.63;0.63;;;;;;;;;;5046816;28;20383;-80
2023/11/01 01:31:34;;;;;;;0.75;0.70;;;;;;;;;;5045890;28;20413;-80
2023/11/01 01:34:00;;;;;;;0.80;0.80;;;;;;;;;;5046247;28;20390;-80
2023/11/01 01:36:26;;;;;;;1.63;0.75;;;;;;;;;;5031529;28;20398;-80
2023/11/01 01:38:52;;;;;;;1.50;0.60;;;;;;;;;;5033838;28;20406;-80
2023/11/01 01:41:18;;;;;;;1.05;0.75;;;;;;;;;;5045851;28;20375;-80
2023/11/01 01:43:44;;;;;;;1.15;0.77;;;;;;;;;;5046608;28;20849;-80
2023/11/01 01:46:13;;;;;;;0.65;0.57;;;;;;;;;;5045456;28;20440;-80
2023/11/01 01:48:40;;;;;;;1.02;0.63;;;;;;;;;;5031109;28;20399;-80
2023/11/01 01:51:06;;;;;;;0.98;0.70;;;;;;;;;;5046020;28;20394;-80
2023/11/01 01:53:33;;;;;;;1.10;0.70;;;;;;;;;;5045179;28;20397;-80
2023/11/01 01:55:59;;;;;;;2.10;0.68;;;;;;;;;;5045118;28;20375;-80
2023/11/01 01:58:27;;;;;;;1.20;0.70;;;;;;;;;;5045253;28;20449;-80
2023/11/01 02:00:53;;;;;;;2.08;0.70;;;;;;;;;;5046383;28;20387;-80
2023/11/01 02:03:19;;;;;;;1.17;0.80;;;;;;;;;;5045774;28;20407;-80
2023/11/01 02:05:45;;;;;;;0.70;0.70;;;;;;;;;;5045359;28;20398;-80
2023/11/01 02:08:11;;;;;;;1.80;0.70;;;;;;;;;;5042666;28;20864;-80
2023/11/01 02:10:38;;;;;;;0.60;0.60;;;;;;;;;;5045286;28;20927;-80
2023/11/01 02:13:11;;;;;;;0.82;0.70;;;;;;;;;;5045528;28;20391;-80
2023/11/01 02:15:37;;;;;;;0.80;0.70;;;;;;;;;;5044741;28;20371;-80
2023/11/01 02:18:03;;;;;;;0.43;0.43;;;;;;;;;;5045386;28;20499;-80
2023/11/01 02:20:31;;;;;;;0.80;0.50;;;;;;;;;;5033942;28;20389;-80
2023/11/01 02:22:56;;;;;;;2.40;0.75;;;;;;;;;;5036919;28;20395;-80
2023/11/01 02:25:23;;;;;;;1.65;0.90;;;;;;;;;;5045320;28;20526;-80
2023/11/01 02:27:49;;;;;;;1.23;0.70;;;;;;;;;;5045120;28;20422;-80
2023/11/01 02:30:16;;;;;;;1.33;0.60;;;;;;;;;;5044806;28;20390;-80
2023/11/01 02:32:47;;;;;;;0.90;0.63;;;;;;;;;;5043086;28;20387;-80
2023/11/01 02:35:13;;;;;;;1.55;0.60;;;;;;;;;;5035054;28;20419;-80
2023/11/01 02:37:39;;;;;;;1.25;0.95;;;;;;;;;;5035621;28;20413;-80
2023/11/01 02:40:06;;;;;;;1.35;1.00;;;;;;;;;;5040121;28;20395;-80
2023/11/01 02:42:32;;;;;;;1.73;1.02;;;;;;;;;;5041774;28;20428;-80
2023/11/01 02:44:58;;;;;;;1.17;0.83;;;;;;;;;;5042417;28;20892;-80
2023/11/01 02:47:24;;;;;;;1.50;0.70;;;;;;;;;;5032606;28;20412;-80
2023/11/01 02:49:50;;;;;;;1.60;0.70;;;;;;;;;;5038342;28;20387;-80
2023/11/01 02:52:16;;;;;;;3.53;0.80;;;;;;;;;;5041972;28;20391;-80
2023/11/01 02:54:42;;;;;;;2.58;0.90;;;;;;;;;;5042326;28;20414;-80
2023/11/01 02:57:08;;;;;;;1.20;0.80;;;;;;;;;;5042297;28;20831;-80
2023/11/01 02:59:34;;;;;;;0.85;0.80;;;;;;;;;;5038505;28;20401;-80
2023/11/01 03:02:00;;;;;;;1.25;0.90;;;;;;;;;;5041801;28;20387;-80
2023/11/01 03:04:26;;;;;;;2.13;1.08;;;;;;;;;;5040827;28;20391;-80
2023/11/01 03:06:52;;;;;;;1.20;0.90;;;;;;;;;;5040989;28;20815;-80
2023/11/01 03:09:18;;;;;;;1.77;1.00;;;;;;;;;;5034001;28;20395;-80
2023/11/01 03:11:44;;;;;;;1.45;1.10;;;;;;;;;;5042694;28;20379;-80
2023/11/01 03:14:10;;;;;;;1.90;1.20;;;;;;;;;;5042857;28;20486;-80
2023/11/01 03:16:37;;;;;;;2.58;1.00;;;;;;;;;;5042650;28;20383;-80
2023/11/01 03:19:03;;;;;;;0.90;0.85;;;;;;;;;;5043044;28;20391;-80
2023/11/01 03:21:29;;;;;;;2.10;1.15;;;;;;;;;;5042622;28;20414;-80
2023/11/01 03:23:55;;;;;;;2.08;1.10;;;;;;;;;;5042900;28;20864;-80
2023/11/01 03:26:21;;;;;;;0.73;0.73;;;;;;;;;;5043490;28;20426;-80
2023/11/01 03:28:47;;;;;;;1.23;1.13;;;;;;;;;;5043746;28;20399;-80
2023/11/01 03:31:13;;;;;;;2.00;1.48;;;;;;;;;;5044151;28;20399;-80
2023/11/01 03:33:39;;;;;;;1.90;1.27;;;;;;;;;;5043372;28;20394;-80
2023/11/01 03:36:08;;;;;;;2.65;1.25;;;;;;;;;;5043839;28;20431;-80
2023/11/01 03:38:34;;;;;;;1.40;1.30;;;;;;;;;;5042303;28;20382;-80
2023/11/01 03:41:02;;;;;;;2.30;1.40;;;;;;;;;;5041360;28;20448;-79
2023/11/01 03:43:28;;;;;;;1.40;1.30;;;;;;;;;;5041923;28;20460;-79
2023/11/01 03:45:54;;;;;;;1.30;1.20;;;;;;;;;;5042875;28;20869;-79
2023/11/01 03:48:20;;;;;;;2.20;1.33;;;;;;;;;;5042986;28;20387;-79
2023/11/01 03:50:46;;;;;;;2.63;1.80;;;;;;;;;;5041643;28;20395;-79
2023/11/01 03:53:13;;;;;;;1.40;1.10;;;;;;;;;;5030695;28;20383;-79
2023/11/01 03:55:39;;;;;;;2.08;1.30;;;;;;;;;;5043000;28;20391;-79
2023/11/01 03:58:05;;;;;;;1.20;1.10;;;;;;;;;;5042802;28;20430;-80
2023/11/01 04:00:31;;;;;;;1.20;1.10;;;;;;;;;;5041177;28;20398;-79
2023/11/01 04:02:57;;;;;;;1.52;0.95;;;;;;;;;;5039212;28;20383;-79
2023/11/01 04:05:23;;;;;;;1.30;1.20;;;;;;;;;;5043437;28;20387;-79
2023/11/01 04:07:49;;;;;;;1.90;1.10;;;;;;;;;;5043649;28;20422;-79
2023/11/01 04:10:15;;;;;;;1.30;1.20;;;;;;;;;;5042687;28;20785;-79
2023/11/01 04:12:41;;;;;;;2.08;1.50;;;;;;;;;;5043553;28;20386;-79
2023/11/01 04:15:13;;;;;;;1.30;1.20;;;;;;;;;;5043024;28;20421;-80
2023/11/01 04:17:39;;;;;;;1.67;1.20;;;;;;;;;;5043029;28;20440;-79
2023/11/01 04:20:07;;;;;;;1.52;1.42;;;;;;;;;;5043307;28;20394;-79
2023/11/01 04:22:34;;;;;;;2.22;1.60;;;;;;;;;;5039135;28;20467;-79
2023/11/01 04:25:00;;;;;;;1.70;1.60;;;;;;;;;;5038302;28;20456;-79
2023/11/01 04:27:26;;;;;;;2.10;1.50;;;;;;;;;;5043566;28;20426;-79
2023/11/01 04:29:54;;;;;;;1.55;1.40;;;;;;;;;;5043434;28;20895;-79
2023/11/01 04:32:28;;;;;;;2.10;1.50;;;;;;;;;;5044011;28;20387;-79
2023/11/01 04:34:55;;;;;;;1.92;1.42;;;;;;;;;;5043808;28;20390;-79
2023/11/01 04:37:24;;;;;;;2.20;1.63;;;;;;;;;;5043083;28;20470;-79
2023/11/01 04:39:50;;;;;;;1.83;1.33;;;;;;;;;;5043260;28;20379;-79
2023/11/01 04:42:16;;;;;;;1.25;1.08;;;;;;;;;;5043500;28;20449;-79
2023/11/01 04:44:45;;;;;;;1.20;1.10;;;;;;;;;;5042553;28;20411;-79
2023/11/01 04:47:12;;;;;;;1.60;0.98;;;;;;;;;;5042727;28;20426;-79
2023/11/01 04:49:38;;;;;;;2.03;1.53;;;;;;;;;;5042921;28;20475;-79
2023/11/01 04:52:06;;;;;;;1.45;1.35;;;;;;;;;;5043486;28;20387;-79
2023/11/01 04:54:33;;;;;;;2.33;1.48;;;;;;;;;;5040765;28;20379;-79
2023/11/01 04:56:59;;;;;;;2.55;1.67;;;;;;;;;;5043244;28;20394;-79
2023/11/01 04:59:27;;;;;;;1.75;1.65;;;;;;;;;;5042256;28;20398;-79
2023/11/01 05:01:53;;;;;;;1.92;1.73;;;;;;;;;;5039496;28;20942;-79
2023/11/01 05:04:19;;;;;;;2.58;1.60;;;;;;;;;;5032472;28;20433;-79
2023/11/01 05:06:45;;;;;;;2.73;1.90;;;;;;;;;;5041794;28;20799;-79
2023/11/01 05:09:12;;;;;;;2.00;1.90;;;;;;;;;;5041826;28;20414;-79
2023/11/01 05:11:38;;;;;;;2.00;1.70;;;;;;;;;;5042120;28;20387;-79
2023/11/01 05:14:04;;;;;;;2.70;1.70;;;;;;;;;;5037542;28;20385;-79
2023/11/01 05:16:30;;;;;;;2.20;2.00;;;;;;;;;;5033525;28;20393;-79
2023/11/01 05:18:56;;;;;;;1.63;1.50;;;;;;;;;;5043030;28;20717;-79
2023/11/01 05:21:22;;;;;;;2.47;1.50;;;;;;;;;;5036876;28;20379;-79
2023/11/01 05:23:48;;;;;;;2.50;1.40;;;;;;;;;;5042174;28;20383;-79
2023/11/01 05:26:15;;;;;;;1.30;1.20;;;;;;;;;;5040271;28;20419;-82
2023/11/01 05:28:41;;;;;;;1.30;1.20;;;;;;;;;;5041108;28;20415;-82
2023/11/01 05:31:07;;;;;;;1.75;1.40;;;;;;;;;;5039572;28;20387;-79
2023/11/01 05:33:33;;;;;;;2.90;1.55;;;;;;;;;;5040021;28;20398;-79
2023/11/01 05:36:06;;;;;;;1.20;1.10;;;;;;;;;;5038741;28;20387;-80
2023/11/01 05:38:32;;;;;;;1.40;1.30;;;;;;;;;;5024507;28;20383;-79
2023/11/01 05:40:58;;;;;;;1.80;1.70;;;;;;;;;;5037054;28;20451;-79
2023/11/01 05:43:24;;;;;;;3.20;1.92;;;;;;;;;;5037424;28;20422;-79
2023/11/01 05:45:50;;;;;;;1.60;1.50;;;;;;;;;;5037297;28;21027;-79
2023/11/01 05:48:17;;;;;;;2.60;1.63;;;;;;;;;;5037522;28;20433;-79
2023/11/01 05:50:44;;;;;;;2.10;1.60;;;;;;;;;;5036743;28;20379;-79
2023/11/01 05:53:10;;;;;;;1.88;1.75;;;;;;;;;;5037146;28;20387;-79
2023/11/01 05:55:39;;;;;;;3.42;2.22;;;;;;;;;;5036529;28;20393;-79
2023/11/01 05:58:11;;;;;;;1.98;1.80;;;;;;;;;;5037014;28;20383;-79
2023/11/01 06:00:37;;;;;;;1.77;1.60;;;;;;;;;;5036078;28;20406;-79
2023/11/01 06:03:06;;;;;;;1.35;1.25;;;;;;;;;;5037833;28;20391;-79
2023/11/01 06:05:34;;;;;;;1.50;1.30;;;;;;;;;;5037559;28;20387;-79
2023/11/01 06:08:00;;;;;;;2.30;1.50;;;;;;;;;;5038136;28;20415;-79
2023/11/01 06:10:26;;;;;;;1.70;1.47;;;;;;;;;;5037747;28;20387;-79
2023/11/01 06:12:52;;;;;;;1.50;1.35;;;;;;;;;;5032908;28;20785;-79
2023/11/01 06:15:18;;;;;;;1.75;1.65;;;;;;;;;;5033861;28;20383;-79
2023/11/01 06:17:44;;;;;;;2.65;2.00;;;;;;;;;;5041062;28;20386;-79
2023/11/01 06:20:10;;;;;;;3.40;1.90;;;;;;;;;;5041648;28;20450;-79
2023/11/01 06:22:36;;;;;;;1.90;1.80;;;;;;;;;;5034042;28;20380;-79
2023/11/01 06:25:02;;;;;;;1.80;1.70;;;;;;;;;;5038797;28;20915;-79
2023/11/01 06:27:28;;;;;;;2.00;1.67;;;;;;;;;;5040015;28;20752;-79
2023/11/01 06:29:54;;;;;;;3.42;1.50;;;;;;;;;;5041810;28;20470;-80
2023/11/01 06:32:21;;;;;;;3.80;1.50;;;;;;;;;;5041289;28;20868;-80
2023/11/01 06:34:47;;;;;;;2.03;1.60;;;;;;;;;;5038907;28;20561;-79
2023/11/01 06:37:13;;;;;;;1.52;1.35;;;;;;;;;;5040001;28;20422;-80
2023/11/01 06:39:39;;;;;;;2.13;1.50;;;;;;;;;;5041406;28;20470;-80
2023/11/01 06:42:05;;;;;;;2.53;1.48;;;;;;;;;;5042198;28;20744;-79
2023/11/01 06:44:33;;;;;;;2.10;1.58;;;;;;;;;;5040748;28;20395;-79
2023/11/01 06:46:58;;;;;;;1.70;1.60;;;;;;;;;;5040933;28;20410;-79
2023/11/01 06:49:25;;;;;;;2.30;1.52;;;;;;;;;;5040621;28;20744;-80
2023/11/01 06:51:51;;;;;;;1.97;1.87;;;;;;;;;;5040749;28;20478;-80
2023/11/01 06:54:17;;;;;;;4.30;2.20;;;;;;;;;;5032774;28;20423;-79
2023/11/01 06:56:46;;;;;;;2.50;2.30;;;;;;;;;;5041579;28;20395;-80
2023/11/01 06:59:13;;;;;;;2.50;2.30;;;;;;;;;;5039941;28;20374;-80
2023/11/01 07:01:39;;;;;;;2.70;2.50;;;;;;;;;;5041199;28;20383;-80
2023/11/01 07:04:05;;;;;;;2.63;2.43;;;;;;;;;;5041613;28;20391;-80
2023/11/01 07:06:31;;;;;;;2.78;2.58;;;;;;;;;;5036991;28;20429;-80
2023/11/01 07:08:57;;;;;;;2.75;2.42;;;;;;;;;;5041110;28;20375;-80
2023/11/01 07:11:24;;;;;;;4.40;2.95;;;;;;;;;;5035233;28;20404;-80
2023/11/01 07:13:51;;;;;;;2.80;2.43;;;;;;;;;;5039164;28;20379;-80
2023/11/01 07:16:17;;;;;;;2.50;2.30;;;;;;;;;;5041619;28;20388;-80
2023/11/01 07:18:43;;;;;;;2.30;2.10;;;;;;;;;;5041774;28;20867;-80
2023/11/01 07:21:10;;;;;;;1.95;1.85;;;;;;;;;;5041445;28;20387;-80
2023/11/01 07:23:36;;;;;;;2.80;2.60;;;;;;;;;;5041308;28;20387;-79
2023/11/01 07:26:02;;;;;;;4.72;4.25;;;;;;;;;;5040843;28;20474;-80
2023/11/01 07:28:28;;;;;;;5.10;4.60;;;;;;;;;;5040430;28;21169;-80
2023/11/01 07:30:54;;;;;;;5.30;4.80;;;;;;;;;;5041154;28;20895;-79
2023/11/01 07:33:20;;;;;;;4.63;4.03;;;;;;;;;;5041654;28;20397;-80
2023/11/01 07:35:46;;;;;;;3.03;2.80;;;;;;;;;;5038273;28;20496;-80
2023/11/01 07:38:13;;;;;;;2.97;2.78;;;;;;;;;;5041742;28;20390;-80
2023/11/01 07:40:38;;;;;;;2.83;2.63;;;;;;;;;;5036816;28;20387;-80
2023/11/01 07:43:04;;;;;;;2.70;2.50;;;;;;;;;;5039746;28;20415;-80
2023/11/01 07:45:31;;;;;;;3.08;2.78;;;;;;;;;;5019047;28;20389;-79
2023/11/01 07:47:57;;;;;;;3.10;2.72;;;;;;;;;;5021907;28;20429;-80
2023/11/01 07:50:24;;;;;;;3.17;2.88;;;;;;;;;;5027248;28;20434;-80
2023/11/01 07:52:50;;;;;;;3.35;2.70;;;;;;;;;;5033814;28;20387;-80
2023/11/01 07:55:16;;;;;;;3.28;2.90;;;;;;;;;;5030951;28;20426;-79
2023/11/01 07:57:42;;;;;;;2.97;2.42;;;;;;;;;;5035641;28;20468;-80
2023/11/01 08:00:10;;;;;;;2.50;2.30;;;;;;;;;;5021021;28;20396;-80
2023/11/01 08:02:36;;;;;;;2.50;2.30;;;;;;;;;;5021820;28;20851;-80
2023/11/01 08:05:04;;;;;;;2.45;2.25;;;;;;;;;;5020640;28;20500;-80
2023/11/01 08:07:30;;;;;;;2.47;2.28;;;;;;;;;;5020004;28;20419;-80
2023/11/01 08:09:56;;;;;;;2.80;2.60;;;;;;;;;;5032580;28;20451;-79
2023/11/01 08:12:22;;;;;;;2.15;2.05;;;;;;;;;;5034368;28;20385;-79
2023/11/01 08:14:50;;;;;;;2.30;2.10;;;;;;;;;;5038010;28;20426;-79
2023/11/01 08:17:16;;;;;;;2.42;2.22;;;;;;;;;;5038848;28;20859;-79
2023/11/01 08:19:42;;;;;;;2.50;2.30;;;;;;;;;;5038564;28;20443;-79
2023/11/01 08:22:12;;;;;;;2.58;2.38;;;;;;;;;;5040211;28;20395;-79
2023/11/01 08:24:38;;;;;;;2.72;2.47;;;;;;;;;;5040034;28;20398;-79
2023/11/01 08:27:04;;;;;;;2.20;2.10;;;;;;;;;;5034232;28;20411;-79
2023/11/01 08:29:30;;;;;;;2.50;2.30;;;;;;;;;;5040099;28;20407;-79
2023/11/01 08:31:57;;;;;;;2.95;2.75;;;;;;;;;;5039596;28;20401;-81
2023/11/01 08:34:23;;;;;;;4.32;2.72;;;;;;;;;;5038939;28;20383;-79
2023/11/01 08:36:49;;;;;;;3.47;3.10;;;;;;;;;;5038697;28;20391;-79
2023/11/01 08:39:15;;;;;;;3.20;3.00;;;;;;;;;;5039464;28;20394;-80
2023/11/01 08:41:43;;;;;;;3.08;2.88;;;;;;;;;;5039885;28;20402;-80
2023/11/01 08:44:09;;;;;;;3.03;2.72;;;;;;;;;;5035180;28;20433;-79
2023/11/01 08:46:35;;;;;;;3.42;3.08;;;;;;;;;;5038969;28;20418;-80
2023/11/01 08:49:01;;;;;;;3.65;3.38;;;;;;;;;;5035004;28;20395;-80
2023/11/01 08:51:27;;;;;;;4.03;3.73;;;;;;;;;;5039676;28;20864;-80
2023/11/01 08:53:53;;;;;;;4.65;4.25;;;;;;;;;;5039989;28;20391;-80
2023/11/01 08:56:19;;;;;;;4.78;4.38;;;;;;;;;;5037856;28;20398;-80
2023/11/01 08:58:45;;;;;;;5.73;5.13;;;;;;;;;;5035428;28;20507;-80
2023/11/01 09:01:12;;;;;;;6.05;5.53;;;;;;;;;;5038929;28;20405;-80
2023/11/01 09:03:38;;;;;;;5.93;5.43;;;;;;;;;;5039307;28;20445;-80
2023/11/01 09:06:04;;;;;;;6.07;5.50;;;;;;;;;;5038516;28;20391;-80
2023/11/01 09:08:30;;;;;;;6.60;5.95;;;;;;;;;;5038726;28;20402;-80
2023/11/01 09:10:57;;;;;;;6.87;6.17;;;;;;;;;;5038351;28;20483;-80
2023/11/01 09:13:23;;;;;;;6.82;6.22;;;;;;;;;;5040733;28;20402;-80
2023/11/01 09:15:49;;;;;;;6.72;6.03;;;;;;;;;;5036402;28;20389;-80
2023/11/01 09:18:15;;;;;;;7.20;6.05;;;;;;;;;;5028894;28;20402;-80
2023/11/01 09:20:41;;;;;;;7.25;6.55;;;;;;;;;;5039950;28;20391;-80
2023/11/01 09:23:07;;;;;;;7.00;6.30;;;;;;;;;;5035278;28;20391;-80
2023/11/01 09:25:33;;;;;;;6.85;5.85;;;;;;;;;;5040814;28;20418;-80
2023/11/01 09:27:59;;;;;;;7.55;6.75;;;;;;;;;;5038528;28;20406;-80
2023/11/01 09:30:25;;;;;;;7.95;7.18;;;;;;;;;;5038648;28;20880;-80
2023/11/01 09:32:51;;;;;;;5.53;5.00;;;;;;;;;;5035269;28;20391;-80
2023/11/01 09:35:17;;;;;;;5.67;5.00;;;;;;;;;;5035485;28;20772;-80
2023/11/01 09:37:43;;;;;;;8.07;6.32;;;;;;;;;;5035580;28;20391;-80
2023/11/01 09:40:11;;;;;;;6.32;5.72;;;;;;;;;;5020576;28;20397;-80
2023/11/01 09:42:40;;;;;;;6.63;5.97;;;;;;;;;;5036973;28;20441;-80
2023/11/01 09:45:10;;;;;;;6.60;6.00;;;;;;;;;;5037144;28;20892;-80
2023/11/01 09:47:37;;;;;;;5.50;5.00;;;;;;;;;;5038635;28;20446;-79
2023/11/01 09:50:03;;;;;;;5.60;5.10;;;;;;;;;;5040602;28;20391;-79
2023/11/01 09:52:30;;;;;;;5.57;4.53;;;;;;;;;;5038910;28;20428;-80
2023/11/01 09:54:57;;;;;;;4.85;4.30;;;;;;;;;;5039025;28;20414;-80
2023/11/01 09:57:24;;;;;;;4.50;4.10;;;;;;;;;;5037826;28;20387;-79
2023/11/01 09:59:51;;;;;;;3.83;3.53;;;;;;;;;;5041752;28;20875;-80
2023/11/01 10:02:17;;;;;;;4.07;3.72;;;;;;;;;;5038827;28;20422;-80
2023/11/01 10:04:43;;;;;;;3.93;3.63;;;;;;;;;;5023272;28;20473;-80
2023/11/01 10:07:10;;;;;;;5.00;4.30;;;;;;;;;;5022592;28;20480;-80
2023/11/01 10:09:37;;;;;;;4.53;3.90;;;;;;;;;;5029665;28;20841;-80
2023/11/01 10:12:03;;;;;;;5.40;4.43;;;;;;;;;;5043034;28;20744;-80
2023/11/01 10:14:32;;;;;;;4.38;3.97;;;;;;;;;;5043022;28;20430;-80
2023/11/01 10:16:59;;;;;;;5.25;4.72;;;;;;;;;;5042749;28;20391;-80
2023/11/01 10:19:26;;;;;;;4.80;4.30;;;;;;;;;;5042207;28;20488;-80
2023/11/01 10:21:52;;;;;;;4.00;3.60;;;;;;;;;;5042387;28;20399;-80
2023/11/01 10:24:18;;;;;;;4.10;3.70;;;;;;;;;;5040700;28;20395;-80
2023/11/01 10:26:44;;;;;;;3.97;3.65;;;;;;;;;;5042460;28;20426;-80
2023/11/01 10:29:10;;;;;;;1.90;1.80;;;;;;;;;;5035631;28;20459;-80
2023/11/01 10:31:36;;;;;;;2.53;1.87;;;;;;;;;;5022740;28;20494;-80
2023/11/01 10:34:12;;;;;;;1.75;1.60;;;;;;;;;;5022815;28;20381;-80
2023/11/01 10:36:52;;;;;;;2.28;1.88;;;;;;;;;;5027162;28;20413;-80
2023/11/01 10:39:18;;;;;;;2.85;1.80;;;;;;;;;;5041611;28;20395;-80
2023/11/01 10:41:48;;;;;;;1.60;1.50;;;;;;;;;;5042967;28;20383;-80
2023/11/01 10:44:18;;;;;;;2.90;2.03;;;;;;;;;;5042294;28;20385;-80
2023/11/01 10:46:44;;;;;;;2.20;1.35;;;;;;;;;;5041017;28;20414;-80
2023/11/01 10:49:10;;;;;;;1.23;1.00;;;;;;;;;;5042503;28;20410;-80
2023/11/01 10:51:37;;;;;;;1.20;0.90;;;;;;;;;;5041503;28;20387;-80
2023/11/01 10:54:03;;;;;;;0.82;0.80;;;;;;;;;;5042220;28;20387;-80
2023/11/01 10:56:29;;;;;;;1.20;1.00;;;;;;;;;;5041491;28;20415;-80
2023/11/01 10:59:01;;;;;;;0.80;0.80;;;;;;;;;;5040782;28;20474;-80
2023/11/01 11:01:32;;;;;;;1.13;1.02;;;;;;;;;;5041880;28;20387;-80
2023/11/01 11:04:21;;;;;;;1.77;1.20;;;;;;;;;;5043022;28;20424;-80
2023/11/01 11:07:05;;;;;;;1.40;1.10;;;;;;;;;;5041765;28;20458;-80
2023/11/01 11:09:32;;;;;;;1.30;1.20;;;;;;;;;;5041721;28;20395;-80
2023/11/01 11:12:17;;;;;;;1.27;1.17;;;;;;;;;;5041563;28;20462;-80
2023/11/01 11:14:50;;;;;;;1.00;0.90;;;;;;;;;;5041913;28;20383;-80
2023/11/01 11:17:17;;;;;;;0.90;0.90;;;;;;;;;;5042134;28;20390;-80
2023/11/01 11:20:03;;;;;;;2.00;1.10;;;;;;;;;;5042756;28;20387;-80
2023/11/01 11:22:49;;;;;;;1.23;1.13;;;;;;;;;;5033363;28;20446;-80
2023/11/01 11:25:33;;;;;;;1.10;1.00;;;;;;;;;;5042087;28;20379;-80
2023/11/01 11:28:02;;;;;;;1.15;1.00;;;;;;;;;;5029693;28;20415;-80
2023/11/01 11:30:43;;;;;;;1.42;1.10;;;;;;;;;;5042164;28;20379;-80
2023/11/01 11:33:10;;;;;;;1.88;1.40;;;;;;;;;;5042538;28;20379;-80
2023/11/01 11:35:36;;;;;;;1.50;1.40;;;;;;;;;;5030809;28;20431;-80
2023/11/01 11:38:21;;;;;;;1.40;1.30;;;;;;;;;;5033803;28;20375;-79
2023/11/01 11:41:07;;;;;;;1.50;1.15;;;;;;;;;;5020635;28;20404;-80
2023/11/01 11:43:52;;;;;;;1.00;0.90;;;;;;;;;;5035092;28;20841;-80
2023/11/01 11:46:47;;;;;;;1.02;0.93;;;;;;;;;;5024760;28;20902;-80
2023/11/01 11:49:26;;;;;;;1.20;1.10;;;;;;;;;;4999220;28;20929;-80
2023/11/01 11:52:06;;;;;;;1.17;1.00;;;;;;;;;;5022725;28;20390;-80
2023/11/01 11:54:33;;;;;;;2.00;1.10;;;;;;;;;;5035932;28;20389;-80
2023/11/01 11:57:11;;;;;;;1.55;1.08;;;;;;;;;;5030783;28;20453;-80
2023/11/01 11:59:37;;;;;;;0.85;0.70;;;;;;;;;;5021322;28;20720;-80
2023/11/01 12:02:10;;;;;;;1.00;0.90;;;;;;;;;;5028867;28;20412;-80
2023/11/01 12:04:36;;;;;;;0.80;0.80;;;;;;;;;;5032716;28;20385;-80
2023/11/01 12:07:03;;;;;;;0.90;0.80;;;;;;;;;;5030751;28;20426;-80
2023/11/01 12:09:30;;;;;;;1.80;0.98;;;;;;;;;;5028843;28;20879;-80
2023/11/01 12:11:57;;;;;;;1.73;0.88;;;;;;;;;;5030825;28;20383;-80
2023/11/01 12:14:24;;;;;;;1.10;0.80;;;;;;;;;;5036057;28;20421;-80
2023/11/01 12:16:52;;;;;;;1.53;0.70;;;;;;;;;;5031015;28;20392;-80
2023/11/01 12:19:19;;;;;;;1.23;0.80;;;;;;;;;;5027905;28;20392;-80
2023/11/01 12:21:49;;;;;;;1.63;1.25;;;;;;;;;;5031356;28;20384;-80
2023/11/01 12:24:16;;;;;;;2.42;1.70;;;;;;;;;;5034320;28;21023;-80
2023/11/01 12:27:01;;;;;;;1.48;1.30;;;;;;;;;;5035006;28;20411;-80
2023/11/01 12:29:36;;;;;;;1.60;1.20;;;;;;;;;;5028839;28;20706;-80
2023/11/01 12:32:03;;;;;;;1.70;1.58;;;;;;;;;;5029192;28;20385;-80
2023/11/01 12:34:31;;;;;;;2.13;1.67;;;;;;;;;;5030981;28;20461;-80
2023/11/01 12:37:01;;;;;;;1.92;1.60;;;;;;;;;;5037965;28;20383;-80
2023/11/01 12:39:27;;;;;;;1.70;1.00;;;;;;;;;;5037574;28;20845;-80
2023/11/01 12:41:53;;;;;;;1.20;0.98;;;;;;;;;;5020823;28;20387;-80
2023/11/01 12:44:22;;;;;;;1.05;0.70;;;;;;;;;;5033799;28;20395;-80
2023/11/01 12:46:48;;;;;;;1.02;0.80;;;;;;;;;;5038036;28;20411;-80
2023/11/01 12:49:14;;;;;;;0.77;0.77;;;;;;;;;;5035444;28;20395;-80
2023/11/01 12:51:41;;;;;;;1.45;0.77;;;;;;;;;;5037469;28;20423;-80
2023/11/01 12:54:08;;;;;;;1.03;0.73;;;;;;;;;;5036838;28;20390;-80
2023/11/01 12:56:34;;;;;;;1.10;0.90;;;;;;;;;;5025966;28;20452;-80
2023/11/01 12:59:00;;;;;;;1.17;0.90;;;;;;;;;;5038011;28;20386;-80
2023/11/01 13:01:26;;;;;;;1.10;0.98;;;;;;;;;;5036465;28;20384;-80
2023/11/01 13:03:52;;;;;;;1.13;0.95;;;;;;;;;;5027363;28;20380;-80
2023/11/01 13:06:18;;;;;;;1.60;1.20;;;;;;;;;;5033424;28;20475;-80
2023/11/01 13:08:44;;;;;;;1.80;1.20;;;;;;;;;;5037763;28;20437;-80
2023/11/01 13:11:10;;;;;;;1.75;1.42;;;;;;;;;;5023641;28;20738;-80
2023/11/01 13:13:36;;;;;;;1.60;1.13;;;;;;;;;;5038761;28;20398;-80
2023/11/01 13:16:02;;;;;;;1.67;1.08;;;;;;;;;;5035917;28;20387;-80
2023/11/01 13:18:28;;;;;;;2.38;1.08;;;;;;;;;;5034213;28;20387;-80
2023/11/01 13:20:54;;;;;;;1.40;1.10;;;;;;;;;;5028828;28;20396;-80
2023/11/01 13:23:20;;;;;;;1.00;0.90;;;;;;;;;;5027791;28;20849;-80
2023/11/01 13:25:46;;;;;;;1.52;1.00;;;;;;;;;;5037707;28;20391;-80
2023/11/01 13:28:12;;;;;;;2.13;0.90;;;;;;;;;;5036921;28;20438;-80
2023/11/01 13:30:38;;;;;;;1.05;0.80;;;;;;;;;;5034719;28;20407;-80
2023/11/01 13:33:04;;;;;;;1.50;0.93;;;;;;;;;;5032205;28;20849;-80
2023/11/01 13:35:30;;;;;;;1.30;0.80;;;;;;;;;;5026093;28;20454;-80
2023/11/01 13:37:56;;;;;;;1.27;1.05;;;;;;;;;;5018897;28;20392;-80
2023/11/01 13:40:24;;;;;;;0.80;0.80;;;;;;;;;;5019404;28;20421;-80
2023/11/01 13:42:50;;;;;;;1.02;0.90;;;;;;;;;;5036442;28;20387;-80
2023/11/01 13:45:16;;;;;;;1.52;1.20;;;;;;;;;;5032594;28;20478;-80
2023/11/01 13:47:42;;;;;;;2.00;1.10;;;;;;;;;;5030085;28;20737;-80
2023/11/01 13:50:08;;;;;;;2.58;1.10;;;;;;;;;;5025926;28;20388;-79
2023/11/01 13:52:35;;;;;;;1.95;1.20;;;;;;;;;;5032155;28;20404;-80
2023/11/01 13:55:01;;;;;;;1.35;1.20;;;;;;;;;;5025988;28;20381;-80
2023/11/01 13:57:27;;;;;;;1.63;1.20;;;;;;;;;;5029913;28;20416;-80
2023/11/01 13:59:53;;;;;;;1.65;1.20;;;;;;;;;;5023683;28;20391;-80
2023/11/01 14:02:19;;;;;;;2.55;1.40;;;;;;;;;;5019191;28;20405;-80
2023/11/01 14:04:45;;;;;;;1.50;1.10;;;;;;;;;;5036104;28;20447;-80
2023/11/01 14:07:11;;;;;;;3.58;1.30;;;;;;;;;;5037594;28;20469;-80
2023/11/01 14:09:37;;;;;;;1.30;1.20;;;;;;;;;;5036280;28;20383;-80
2023/11/01 14:12:04;;;;;;;1.33;1.20;;;;;;;;;;5027901;28;20434;-80
2023/11/01 14:14:31;;;;;;;1.80;1.30;;;;;;;;;;5025709;28;20448;-80
2023/11/01 14:17:00;;;;;;;2.05;1.00;;;;;;;;;;5025780;28;20733;-80
2023/11/01 14:19:26;;;;;;;1.83;1.20;;;;;;;;;;5037745;28;20418;-80
2023/11/01 14:21:52;;;;;;;2.28;1.25;;;;;;;;;;5036020;28;20453;-80
2023/11/01 14:24:18;;;;;;;1.60;1.40;;;;;;;;;;5037668;28;20395;-80
2023/11/01 14:26:44;;;;;;;2.05;1.40;;;;;;;;;;5038105;28;20407;-80
2023/11/01 14:29:10;;;;;;;3.33;1.67;;;;;;;;;;5037109;28;20387;-80
2023/11/01 14:31:37;;;;;;;1.70;1.60;;;;;;;;;;5035693;28;20390;-80
2023/11/01 14:34:03;;;;;;;2.97;1.55;;;;;;;;;;5033689;28;20389;-80
2023/11/01 14:36:29;;;;;;;2.00;1.35;;;;;;;;;;5035603;28;20506;-80
2023/11/01 14:38:55;;;;;;;3.42;2.00;;;;;;;;;;5041168;28;20410;-80
2023/11/01 14:41:21;;;;;;;2.08;1.88;;;;;;;;;;5040885;28;20395;-80
2023/11/01 14:43:47;;;;;;;2.50;1.60;;;;;;;;;;5041205;28;20395;-80